KROC/ROC METAR and TAF weather

Enter ICAO airport designator
Station Type Date Time Source
KROC METAR 2023/02/05 13:54 UTC NOAA

KROC 051354Z 21013G19KT 10SM FEW070 BKN130 OVC220 03/M06 A2993 RMK AO2 SLP145 T00281061 $


Station Type Date Time Source
KROC Decoded METAR 2023/02/05 13:54 UTC NOAA

GREATER ROCHESTER INTERNATIONAL , NY, United States (KROC) 43-07N 077-41W 178M
Feb 05, 2023 - 08:54 AM EST / 2023.02.05 1354 UTC
Wind: from the SSW (210 degrees) at 15 MPH (13 KT) gusting to 22 MPH (19 KT):0
Visibility: 10 mile(s):0
Sky conditions: overcast
Temperature: 37.0 F (2.8 C)
Dew Point: 21.0 F (-6.1 C)
Relative Humidity: 51%
Pressure (altimeter): 29.93 in. Hg (1013 hPa)
ob: KROC 051354Z 21013G19KT 10SM FEW070 BKN130 OVC220 03/M06 A2993 RMK AO2 SLP145 T00281061
cycle: 14

Station Type Date Time Source
KROC TAF 2023/02/05 14:26 UTC NOAA

TAF
AMD KROC 051426Z 0514/0612 21014G22KT P6SM BKN200
FM051700 22016G24KT P6SM BKN100
FM052000 23012G20KT P6SM BKN035
FM052200 23009KT P6SM BKN020
FM060000 22008KT P6SM VCSH OVC015
FM060300 24008KT P6SM VCSH OVC007

Example: see airport list